createdAt,value
2018-01-21T00:00:07.373Z,16.10
2018-01-21T00:01:07.383Z,14.50
2018-01-21T00:02:07.396Z,14.80
2018-01-21T00:03:07.408Z,14.20
2018-01-21T00:04:07.418Z,14.70
2018-01-21T00:05:07.432Z,14.10
2018-01-21T00:06:07.450Z,14.50
2018-01-21T00:07:07.460Z,12.80
2018-01-21T00:08:07.470Z,13.30
2018-01-21T00:09:07.482Z,14.40
2018-01-21T00:10:07.500Z,14.70
2018-01-21T00:11:07.508Z,13.90
2018-01-21T00:12:07.523Z,14.00
2018-01-21T00:13:07.535Z,13.30
2018-01-21T00:14:07.550Z,13.10
2018-01-21T00:15:07.559Z,13.40
2018-01-21T00:16:07.573Z,13.70
2018-01-21T00:17:07.593Z,14.80
2018-01-21T00:18:07.607Z,13.90
2018-01-21T00:19:07.617Z,14.70
2018-01-21T00:20:07.625Z,13.90
2018-01-21T00:21:07.642Z,14.40
2018-01-21T00:22:07.656Z,16.90
2018-01-21T00:23:07.665Z,17.50
2018-01-21T00:24:07.681Z,14.60
2018-01-21T00:25:07.693Z,16.40
2018-01-21T00:26:07.707Z,17.90
2018-01-21T00:27:07.712Z,16.70
2018-01-21T00:28:07.741Z,16.90
2018-01-21T00:29:07.739Z,17.20
2018-01-21T00:30:07.753Z,18.20
2018-01-21T00:31:07.766Z,16.70
2018-01-21T00:32:07.777Z,15.60
2018-01-21T00:33:07.789Z,15.40
2018-01-21T00:34:07.806Z,15.50
2018-01-21T00:35:07.812Z,16.50
2018-01-21T00:36:07.828Z,15.40
2018-01-21T00:37:07.865Z,15.20
2018-01-21T00:38:07.854Z,16.00
2018-01-21T00:39:07.867Z,15.50
2018-01-21T00:40:07.878Z,15.10
2018-01-21T00:41:07.897Z,14.90
2018-01-21T00:42:07.915Z,14.80
2018-01-21T00:43:07.915Z,14.50
2018-01-21T00:44:07.930Z,14.10
2018-01-21T00:45:07.942Z,13.90
2018-01-21T00:46:07.958Z,14.10
2018-01-21T00:47:07.971Z,15.90
2018-01-21T00:48:07.982Z,13.60
2018-01-21T00:49:07.996Z,13.20
2018-01-21T00:50:08.007Z,12.80
2018-01-21T00:51:08.028Z,12.80
2018-01-21T00:52:08.051Z,11.90
2018-01-21T00:53:08.046Z,11.30
2018-01-21T00:54:08.062Z,11.50
2018-01-21T00:55:08.074Z,11.80
2018-01-21T00:56:08.086Z,11.30
2018-01-21T00:57:08.094Z,9.50
2018-01-21T00:58:08.111Z,10.60
2018-01-21T00:59:08.121Z,10.90
2018-01-21T01:00:08.134Z,10.30
2018-01-21T01:01:08.147Z,10.90
2018-01-21T01:02:08.169Z,12.60
2018-01-21T01:03:08.172Z,11.40
2018-01-21T01:04:08.183Z,17.30
2018-01-21T01:05:08.195Z,29.10
2018-01-21T01:06:08.217Z,27.40
2018-01-21T01:07:08.224Z,22.90
2018-01-21T01:08:08.242Z,17.00
2018-01-21T01:09:08.256Z,16.30
2018-01-21T01:10:08.275Z,13.70
2018-01-21T01:11:08.278Z,10.90
2018-01-21T01:12:08.288Z,10.70
2018-01-21T01:13:08.300Z,10.10
2018-01-21T01:14:08.313Z,8.70
2018-01-21T01:15:08.327Z,5.70
2018-01-21T01:16:08.342Z,4.20
2018-01-21T01:17:08.352Z,3.80
2018-01-21T01:18:08.364Z,4.20
2018-01-21T01:19:08.376Z,3.60
2018-01-21T01:20:08.388Z,3.40
2018-01-21T01:21:08.403Z,8.00
2018-01-21T01:22:08.417Z,15.00
2018-01-21T01:23:08.426Z,17.20
2018-01-21T01:24:08.443Z,11.40
2018-01-21T01:25:08.453Z,5.90
2018-01-21T01:26:08.467Z,8.70
2018-01-21T01:27:08.485Z,4.50
2018-01-21T01:28:08.492Z,4.50
2018-01-21T01:29:08.506Z,4.90
2018-01-21T01:30:08.517Z,3.70
2018-01-21T01:31:08.532Z,3.90
2018-01-21T01:32:08.545Z,4.20
2018-01-21T01:33:08.552Z,3.40
2018-01-21T01:34:08.571Z,3.00
2018-01-21T01:35:08.577Z,2.90
2018-01-21T01:36:08.593Z,3.00
2018-01-21T01:37:08.603Z,2.50
2018-01-21T01:38:08.616Z,2.70
2018-01-21T01:39:08.631Z,2.40
2018-01-21T01:40:08.642Z,2.60
2018-01-21T01:41:08.659Z,2.60
2018-01-21T01:42:08.678Z,2.60
2018-01-21T01:43:08.685Z,2.40
2018-01-21T01:44:08.699Z,2.30
2018-01-21T01:45:08.712Z,2.30
2018-01-21T01:46:08.723Z,2.60
2018-01-21T01:47:08.734Z,3.90
2018-01-21T01:48:08.746Z,3.30
2018-01-21T01:49:08.767Z,2.50
2018-01-21T01:50:08.780Z,2.10
2018-01-21T01:51:08.783Z,2.30
2018-01-21T01:52:08.795Z,2.10
2018-01-21T01:53:08.805Z,2.30
2018-01-21T01:54:08.828Z,2.20
2018-01-21T01:55:08.833Z,2.20
2018-01-21T01:56:08.848Z,2.50
2018-01-21T01:57:08.858Z,2.20
2018-01-21T01:58:08.871Z,2.00
2018-01-21T01:59:08.884Z,2.60
2018-01-21T02:00:08.898Z,3.20
2018-01-21T02:01:08.913Z,4.00
2018-01-21T02:02:08.921Z,3.30
2018-01-21T02:03:08.933Z,2.60
2018-01-21T02:04:08.946Z,3.10
2018-01-21T02:05:08.962Z,4.30
2018-01-21T02:06:08.970Z,3.40
2018-01-21T02:07:08.987Z,2.70
2018-01-21T02:08:08.999Z,2.80
2018-01-21T02:09:09.014Z,2.70
2018-01-21T02:10:09.026Z,2.20
2018-01-21T02:11:09.044Z,5.90
2018-01-21T02:12:09.050Z,6.30
2018-01-21T02:13:09.061Z,3.70
2018-01-21T02:14:09.091Z,2.60
2018-01-21T02:15:09.093Z,2.10
2018-01-21T02:16:09.100Z,2.00
2018-01-21T02:17:09.113Z,1.60
2018-01-21T02:18:09.125Z,1.80
2018-01-21T02:19:09.136Z,1.90
2018-01-21T02:20:09.148Z,6.60
2018-01-21T02:21:09.165Z,13.90
2018-01-21T02:22:09.176Z,6.60
2018-01-21T02:23:09.186Z,2.90
2018-01-21T02:24:09.202Z,2.50
2018-01-21T02:25:09.212Z,2.10
2018-01-21T02:26:09.226Z,1.60
2018-01-21T02:27:09.241Z,1.40
2018-01-21T02:28:09.251Z,1.90
2018-01-21T02:29:09.263Z,1.60
2018-01-21T02:30:09.280Z,1.80
2018-01-21T02:31:09.291Z,1.80
2018-01-21T02:32:09.308Z,1.20
2018-01-21T02:33:09.325Z,1.20
2018-01-21T02:34:09.331Z,2.50
2018-01-21T02:35:09.341Z,2.60
2018-01-21T02:36:09.354Z,2.40
2018-01-21T02:37:09.368Z,2.10
2018-01-21T02:38:09.381Z,2.70
2018-01-21T02:39:09.396Z,9.30
2018-01-21T02:40:09.403Z,6.60
2018-01-21T02:41:09.422Z,4.00
2018-01-21T02:42:09.431Z,5.50
2018-01-21T02:43:09.446Z,3.30
2018-01-21T02:44:09.456Z,4.20
2018-01-21T02:45:09.471Z,4.10
2018-01-21T02:46:09.485Z,3.90
2018-01-21T02:47:09.497Z,3.70
2018-01-21T02:48:09.509Z,2.90
2018-01-21T02:49:09.519Z,2.30
2018-01-21T02:50:09.537Z,1.40
2018-01-21T02:51:09.545Z,1.30
2018-01-21T02:52:09.558Z,1.00
2018-01-21T02:53:09.580Z,1.40
2018-01-21T02:54:09.583Z,1.40
2018-01-21T02:55:09.595Z,1.60
2018-01-21T02:56:09.612Z,1.90
2018-01-21T02:57:09.628Z,2.30
2018-01-21T02:58:10.156Z,14.30
2018-01-21T02:59:09.651Z,26.50
2018-01-21T03:01:09.681Z,16.50
2018-01-21T03:02:09.689Z,6.80
2018-01-21T03:03:09.702Z,4.10
2018-01-21T03:04:09.740Z,2.10
2018-01-21T03:05:09.725Z,1.90
2018-01-21T03:06:09.746Z,1.70
2018-01-21T03:07:30.762Z,2.00
2018-01-21T03:08:09.765Z,2.70
2018-01-21T03:09:09.778Z,2.50
2018-01-21T03:10:09.791Z,2.30
2018-01-21T03:11:09.802Z,2.20
2018-01-21T03:12:09.814Z,2.20
2018-01-21T03:13:30.842Z,2.70
2018-01-21T03:14:09.842Z,2.90
2018-01-21T03:15:09.854Z,2.70
2018-01-21T03:16:09.865Z,2.50
2018-01-21T03:17:09.880Z,3.10
2018-01-21T03:18:09.901Z,2.70
2018-01-21T03:19:30.925Z,2.70
2018-01-21T03:20:09.918Z,2.60
2018-01-21T03:21:09.933Z,2.30
2018-01-21T03:22:09.951Z,2.20
2018-01-21T03:23:09.966Z,2.30
2018-01-21T03:24:09.974Z,2.50
2018-01-21T03:25:30.995Z,2.40
2018-01-21T03:26:09.998Z,1.80
2018-01-21T03:27:10.072Z,1.70
2018-01-21T03:28:10.022Z,2.00
2018-01-21T03:29:10.038Z,1.50
2018-01-21T03:30:10.063Z,1.80
2018-01-21T03:31:31.077Z,1.70
2018-01-21T03:32:10.073Z,2.00
2018-01-21T03:33:10.091Z,1.90
2018-01-21T03:34:10.106Z,2.00
2018-01-21T03:35:10.116Z,1.80
2018-01-21T03:36:10.130Z,1.50
2018-01-21T03:37:31.163Z,1.30
2018-01-21T03:38:10.156Z,1.50
2018-01-21T03:39:10.165Z,1.20
2018-01-21T03:40:10.182Z,1.30
2018-01-21T03:41:10.213Z,1.50
2018-01-21T03:42:10.204Z,1.60
2018-01-21T03:43:31.229Z,1.50
2018-01-21T03:44:10.239Z,1.50
2018-01-21T03:45:10.251Z,1.50
2018-01-21T03:46:10.257Z,1.20
2018-01-21T03:47:10.276Z,1.60
2018-01-21T03:48:10.282Z,1.70
2018-01-21T03:49:31.307Z,2.00
2018-01-21T03:50:10.320Z,1.90
2018-01-21T03:51:10.318Z,1.80
2018-01-21T03:52:10.334Z,2.10
2018-01-21T03:53:10.346Z,2.00
2018-01-21T03:54:10.360Z,2.00
2018-01-21T03:55:31.384Z,2.70
2018-01-21T03:56:10.382Z,2.30
2018-01-21T03:57:10.422Z,2.10
2018-01-21T03:58:10.411Z,1.90
2018-01-21T03:59:10.432Z,2.20
2018-01-21T04:00:10.443Z,2.30
2018-01-21T04:01:31.465Z,2.40
2018-01-21T04:02:10.462Z,2.60
2018-01-21T04:03:10.474Z,2.00
2018-01-21T04:04:10.486Z,2.10
2018-01-21T04:05:10.510Z,2.10
2018-01-21T04:06:10.521Z,2.30
2018-01-21T04:07:31.539Z,1.80
2018-01-21T04:08:10.541Z,1.80
2018-01-21T04:09:10.556Z,1.90
2018-01-21T04:10:10.573Z,2.10
2018-01-21T04:11:10.575Z,1.90
2018-01-21T04:12:10.613Z,2.30
2018-01-21T04:13:31.616Z,2.10
2018-01-21T04:14:10.625Z,1.90
2018-01-21T04:15:10.633Z,2.10
2018-01-21T04:16:10.639Z,1.90
2018-01-21T04:17:10.672Z,1.90
2018-01-21T04:18:10.668Z,2.10
2018-01-21T04:19:31.690Z,1.80
2018-01-21T04:20:10.693Z,1.80
2018-01-21T04:21:10.710Z,2.00
2018-01-21T04:22:10.765Z,2.00
2018-01-21T04:23:10.731Z,2.20
2018-01-21T04:24:10.743Z,2.10
2018-01-21T04:25:31.771Z,1.80
2018-01-21T04:26:10.774Z,2.00
2018-01-21T04:27:10.786Z,2.30
2018-01-21T04:28:10.805Z,1.80
2018-01-21T04:29:10.808Z,1.90
2018-01-21T04:30:10.821Z,2.00
2018-01-21T04:31:31.851Z,2.30
2018-01-21T04:32:10.852Z,2.30
2018-01-21T04:33:10.858Z,2.30
2018-01-21T04:34:10.876Z,2.10
2018-01-21T04:35:10.893Z,2.30
2018-01-21T04:36:10.907Z,2.70
2018-01-21T04:37:31.921Z,2.90
2018-01-21T04:38:10.926Z,2.80
2018-01-21T04:39:10.939Z,2.60
2018-01-21T04:40:10.956Z,3.20
2018-01-21T04:41:10.959Z,3.60
2018-01-21T04:42:10.971Z,10.60
2018-01-21T04:43:32.002Z,9.50
2018-01-21T04:44:10.996Z,4.70
2018-01-21T04:45:11.011Z,4.70
2018-01-21T04:46:11.028Z,3.70
2018-01-21T04:47:11.033Z,4.30
2018-01-21T04:48:11.055Z,6.00
2018-01-21T04:49:32.073Z,5.10
2018-01-21T04:50:11.077Z,4.40
2018-01-21T04:51:11.086Z,5.00
2018-01-21T04:52:11.100Z,5.50
2018-01-21T04:53:11.111Z,5.40
2018-01-21T04:54:11.133Z,5.60
2018-01-21T04:55:32.151Z,5.40
2018-01-21T04:56:11.156Z,6.10
2018-01-21T04:57:11.163Z,5.50
2018-01-21T04:58:11.184Z,5.80
2018-01-21T04:59:11.189Z,6.70
2018-01-21T05:00:11.206Z,6.00
2018-01-21T05:01:32.227Z,6.70
2018-01-21T05:02:11.230Z,7.70
2018-01-21T05:03:11.239Z,8.40
2018-01-21T05:04:11.256Z,6.80
2018-01-21T05:05:11.263Z,6.40
2018-01-21T05:06:11.279Z,6.60
2018-01-21T05:07:32.303Z,7.50
2018-01-21T05:08:11.305Z,8.50
2018-01-21T05:09:11.319Z,8.70
2018-01-21T05:10:11.386Z,9.00
2018-01-21T05:11:11.341Z,9.60
2018-01-21T05:12:11.354Z,9.80
2018-01-21T05:13:32.380Z,11.80
2018-01-21T05:14:11.379Z,10.50
2018-01-21T05:15:11.391Z,11.20
2018-01-21T05:16:11.427Z,10.60
2018-01-21T05:17:11.430Z,10.90
2018-01-21T05:18:11.453Z,10.10
2018-01-21T05:19:32.460Z,11.40
2018-01-21T05:20:11.460Z,11.30
2018-01-21T05:21:11.485Z,10.60
2018-01-21T05:22:11.487Z,10.70
2018-01-21T05:23:11.507Z,11.70
2018-01-21T05:24:11.519Z,11.50
2018-01-21T05:25:32.533Z,11.50
2018-01-21T05:26:11.534Z,12.80
2018-01-21T05:27:11.549Z,13.10
2018-01-21T05:28:11.560Z,13.40
2018-01-21T05:29:11.572Z,13.70
2018-01-21T05:30:11.583Z,14.00
2018-01-21T05:31:32.618Z,13.50
2018-01-21T05:32:11.611Z,14.00
2018-01-21T05:33:11.628Z,14.10
2018-01-21T05:34:11.647Z,21.50
2018-01-21T05:35:11.654Z,21.50
2018-01-21T05:36:11.665Z,19.20
2018-01-21T05:37:32.691Z,16.20
2018-01-21T05:38:11.691Z,14.70
2018-01-21T05:39:11.699Z,13.60
2018-01-21T05:40:11.719Z,12.20
2018-01-21T05:41:11.731Z,12.00
2018-01-21T05:42:11.745Z,14.30
2018-01-21T05:43:32.765Z,16.70
2018-01-21T05:44:11.768Z,14.90
2018-01-21T05:45:11.781Z,14.50
2018-01-21T05:46:11.796Z,15.20
2018-01-21T05:47:11.809Z,14.80
2018-01-21T05:48:11.818Z,15.50
2018-01-21T05:49:32.845Z,15.60
2018-01-21T05:50:11.847Z,16.10
2018-01-21T05:51:11.856Z,17.60
2018-01-21T05:52:11.868Z,16.80
2018-01-21T05:53:11.883Z,19.30
2018-01-21T05:54:11.898Z,21.80
2018-01-21T05:55:32.922Z,21.10
2018-01-21T05:56:11.923Z,20.40
2018-01-21T05:57:11.941Z,21.70
2018-01-21T05:58:11.947Z,21.10
2018-01-21T05:59:11.958Z,20.50
2018-01-21T06:00:11.981Z,23.40
2018-01-21T06:01:32.997Z,23.50
2018-01-21T06:02:12.005Z,21.90
2018-01-21T06:03:12.009Z,18.30
2018-01-21T06:04:12.028Z,16.90
2018-01-21T06:05:12.045Z,17.90
2018-01-21T06:06:12.050Z,16.80
2018-01-21T06:07:33.090Z,16.30
2018-01-21T06:08:12.076Z,16.90
2018-01-21T06:09:12.090Z,18.00
2018-01-21T06:10:12.103Z,17.60
2018-01-21T06:11:12.119Z,18.30
2018-01-21T06:12:12.131Z,17.60
2018-01-21T06:13:33.153Z,19.50
2018-01-21T06:14:12.152Z,18.20
2018-01-21T06:15:12.163Z,18.40
2018-01-21T06:16:12.181Z,18.00
2018-01-21T06:17:12.189Z,19.40
2018-01-21T06:18:12.206Z,19.50
2018-01-21T06:19:33.230Z,18.70
2018-01-21T06:20:12.237Z,18.90
2018-01-21T06:21:12.247Z,20.40
2018-01-21T06:22:12.254Z,21.90
2018-01-21T06:23:12.294Z,20.10
2018-01-21T06:24:12.280Z,19.60
2018-01-21T06:25:33.306Z,19.70
2018-01-21T06:26:12.305Z,19.80
2018-01-21T06:27:12.318Z,18.00
2018-01-21T06:28:12.332Z,18.10
2018-01-21T06:29:12.345Z,18.50
2018-01-21T06:30:12.372Z,19.50
2018-01-21T06:33:56.677Z,15.90
2018-01-21T06:34:56.632Z,16.80
2018-01-21T06:36:49.603Z,16.90
2018-01-21T06:37:49.602Z,17.70
2018-01-21T06:39:42.634Z,16.00
2018-01-21T06:40:42.572Z,15.00
2018-01-21T06:42:35.565Z,16.00
2018-01-21T06:43:35.481Z,16.80
2018-01-21T06:44:35.544Z,16.30
2018-01-21T06:45:35.510Z,17.70
2018-01-21T06:46:35.520Z,17.00
2018-01-21T06:47:35.581Z,17.30
2018-01-21T06:48:35.576Z,17.00
2018-01-21T06:49:35.560Z,20.50
2018-01-21T06:50:35.575Z,25.10
2018-01-21T06:51:35.669Z,17.40
2018-01-21T06:52:35.646Z,14.30
2018-01-21T06:53:35.623Z,13.70
2018-01-21T06:54:35.641Z,13.50
2018-01-21T06:55:35.724Z,14.90
2018-01-21T06:56:35.722Z,13.00
2018-01-21T06:57:35.662Z,13.30
2018-01-21T06:58:35.689Z,14.00
2018-01-21T06:59:35.704Z,14.80
2018-01-21T07:00:35.697Z,16.10
2018-01-21T07:01:35.795Z,16.20
2018-01-21T07:02:35.771Z,14.70
2018-01-21T07:03:35.816Z,14.70
2018-01-21T07:04:35.786Z,14.00
2018-01-21T07:05:35.865Z,14.10
2018-01-21T07:06:35.880Z,14.50
2018-01-21T07:07:35.815Z,14.20
2018-01-21T07:08:35.832Z,14.70
2018-01-21T07:09:35.853Z,13.30
2018-01-21T07:10:35.879Z,50.60
2018-01-21T07:11:35.841Z,27.30
2018-01-21T07:12:35.852Z,20.40
2018-01-21T07:13:35.865Z,16.90
2018-01-21T07:14:35.879Z,17.80
2018-01-21T07:15:35.891Z,20.60
2018-01-21T07:16:35.904Z,21.40
2018-01-21T07:17:35.914Z,19.00
2018-01-21T07:18:35.935Z,18.30
2018-01-21T07:19:35.940Z,18.00
2018-01-21T07:20:35.951Z,19.30
2018-01-21T07:21:36.018Z,20.80
2018-01-21T07:22:35.978Z,19.40
2018-01-21T07:23:35.987Z,19.90
2018-01-21T07:24:36.010Z,20.50
2018-01-21T07:25:36.016Z,20.90
2018-01-21T07:26:36.030Z,21.60
2018-01-21T07:27:36.045Z,22.20
2018-01-21T07:28:36.076Z,23.30
2018-01-21T07:29:36.066Z,24.70
2018-01-21T07:30:36.079Z,24.90
2018-01-21T07:31:36.132Z,23.40
2018-01-21T07:32:36.104Z,23.60
2018-01-21T07:33:36.120Z,23.70
2018-01-21T07:34:36.133Z,23.70
2018-01-21T07:35:36.143Z,24.50
2018-01-21T07:36:36.229Z,23.80
2018-01-21T07:37:36.169Z,23.10
2018-01-21T07:38:36.183Z,22.00
2018-01-21T07:39:36.192Z,23.70
2018-01-21T07:40:36.204Z,26.00
2018-01-21T07:41:36.214Z,24.10
2018-01-21T07:42:36.230Z,24.40
2018-01-21T07:43:36.243Z,22.90
2018-01-21T07:44:36.253Z,21.60
2018-01-21T07:45:36.274Z,22.30
2018-01-21T07:46:36.277Z,21.80
2018-01-21T07:47:36.293Z,21.70
2018-01-21T07:48:36.303Z,20.90
2018-01-21T07:49:36.312Z,21.30
2018-01-21T07:50:36.325Z,21.60
2018-01-21T07:51:36.339Z,21.30
2018-01-21T07:52:36.352Z,23.20
2018-01-21T07:53:36.366Z,20.70
2018-01-21T07:54:36.377Z,22.10
2018-01-21T07:55:36.387Z,22.00
2018-01-21T07:56:36.401Z,22.80
2018-01-21T07:57:36.415Z,21.30
2018-01-21T07:58:36.424Z,22.30
2018-01-21T07:59:36.436Z,22.90
2018-01-21T08:00:36.453Z,24.70
2018-01-21T08:01:36.465Z,23.20
2018-01-21T08:02:36.478Z,23.10
2018-01-21T08:03:36.488Z,23.70
2018-01-21T08:04:36.500Z,23.10
2018-01-21T08:05:36.516Z,25.80
2018-01-21T08:06:36.526Z,26.10
2018-01-21T08:07:36.537Z,23.10
2018-01-21T08:08:36.555Z,22.40
2018-01-21T08:09:36.565Z,20.80
2018-01-21T08:10:36.586Z,21.20
2018-01-21T08:11:36.587Z,22.50
2018-01-21T08:12:36.604Z,20.20
2018-01-21T08:13:36.615Z,18.50
2018-01-21T08:14:36.628Z,20.50
2018-01-21T08:15:36.644Z,21.10
2018-01-21T08:16:36.665Z,18.70
2018-01-21T08:17:36.661Z,18.10
2018-01-21T08:18:36.678Z,18.70
2018-01-21T08:19:36.689Z,18.70
2018-01-21T08:20:36.705Z,18.00
2018-01-21T08:21:36.717Z,18.40
2018-01-21T08:22:36.724Z,18.50
2018-01-21T08:23:36.739Z,18.90
2018-01-21T08:24:36.750Z,19.40
2018-01-21T08:25:36.767Z,15.20
2018-01-21T08:26:36.775Z,16.50
2018-01-21T08:27:36.786Z,18.30
2018-01-21T08:28:36.804Z,15.00
2018-01-21T08:29:36.809Z,16.30
2018-01-21T08:30:36.833Z,17.20
2018-01-21T08:31:36.847Z,18.80
2018-01-21T08:32:36.915Z,18.10
2018-01-21T08:33:36.877Z,18.30
2018-01-21T08:34:36.913Z,16.90
2018-01-21T08:35:36.906Z,16.70
2018-01-21T08:36:36.898Z,17.10
2018-01-21T08:37:36.912Z,17.20
2018-01-21T08:38:36.923Z,16.30
2018-01-21T08:39:36.955Z,15.80
2018-01-21T08:40:36.955Z,15.00
2018-01-21T08:41:36.970Z,14.90
2018-01-21T08:42:37.045Z,16.10
2018-01-21T08:43:36.989Z,16.80
2018-01-21T08:44:37.006Z,17.20
2018-01-21T08:45:37.015Z,20.30
2018-01-21T08:46:37.024Z,18.90
2018-01-21T08:47:37.040Z,18.20
2018-01-21T08:48:37.053Z,16.70
2018-01-21T08:49:37.066Z,18.00
2018-01-21T08:50:37.078Z,27.70
2018-01-21T08:51:37.099Z,24.20
2018-01-21T08:52:37.103Z,46.20
2018-01-21T08:53:37.123Z,28.90
2018-01-21T08:54:37.130Z,26.20
2018-01-21T08:55:37.143Z,27.60
2018-01-21T08:56:37.165Z,20.20
2018-01-21T08:57:37.171Z,20.20
2018-01-21T08:58:37.183Z,22.80
2018-01-21T08:59:37.199Z,22.90
2018-01-21T09:00:37.213Z,18.20
2018-01-21T09:01:37.235Z,18.00
2018-01-21T09:02:37.264Z,17.20
2018-01-21T09:03:37.249Z,17.60
2018-01-21T09:04:37.259Z,18.00
2018-01-21T09:05:37.277Z,18.40
2018-01-21T09:06:37.291Z,17.90
2018-01-21T09:07:37.302Z,17.60
2018-01-21T09:08:37.318Z,16.80
2018-01-21T09:09:37.342Z,17.30
2018-01-21T09:10:37.342Z,17.90
2018-01-21T09:11:37.408Z,17.50
2018-01-21T09:12:37.370Z,16.80
2018-01-21T09:13:37.384Z,16.40
2018-01-21T09:14:37.395Z,17.20
2018-01-21T09:15:37.409Z,18.50
2018-01-21T09:16:37.422Z,17.40
2018-01-21T09:17:37.437Z,16.60
2018-01-21T09:18:37.453Z,16.00
2018-01-21T09:19:37.464Z,16.10
2018-01-21T09:20:37.478Z,16.90
2018-01-21T09:21:37.492Z,16.90
2018-01-21T09:22:37.504Z,17.60
2018-01-21T09:23:37.527Z,18.10
2018-01-21T09:24:37.531Z,17.70
2018-01-21T09:25:37.566Z,18.50
2018-01-21T09:26:37.610Z,17.80
2018-01-21T09:27:37.572Z,18.90
2018-01-21T09:28:37.594Z,19.10
2018-01-21T09:29:37.598Z,17.70
2018-01-21T09:30:37.627Z,17.50
2018-01-21T09:31:37.633Z,17.70
2018-01-21T09:32:37.646Z,18.10
2018-01-21T09:33:37.655Z,17.80
2018-01-21T09:34:37.668Z,18.10
2018-01-21T09:35:37.685Z,19.00
2018-01-21T09:36:37.695Z,19.10
2018-01-21T09:37:37.714Z,17.40
2018-01-21T09:38:37.771Z,17.60
2018-01-21T09:39:37.738Z,17.90
2018-01-21T09:40:37.753Z,20.20
2018-01-21T09:41:37.767Z,20.10
2018-01-21T09:42:37.784Z,19.00
2018-01-21T09:43:37.793Z,18.40
2018-01-21T09:44:37.815Z,18.40
2018-01-21T09:45:37.822Z,18.30
2018-01-21T09:46:37.835Z,17.80
2018-01-21T09:47:37.851Z,17.80
2018-01-21T09:48:37.867Z,17.80
2018-01-21T09:49:37.897Z,17.60
2018-01-21T09:50:37.899Z,17.70
2018-01-21T09:51:37.909Z,17.90
2018-01-21T09:52:37.924Z,18.10
2018-01-21T09:53:37.940Z,18.40
2018-01-21T09:54:37.961Z,17.60
2018-01-21T09:55:37.965Z,19.40
2018-01-21T09:56:37.976Z,18.80
2018-01-21T09:57:37.999Z,18.00
2018-01-21T09:58:38.007Z,18.70
2018-01-21T09:59:38.020Z,18.10
2018-01-21T10:00:38.039Z,19.60
2018-01-21T10:01:38.059Z,19.50
2018-01-21T10:02:38.062Z,19.70
2018-01-21T10:03:38.078Z,21.80
2018-01-21T10:04:38.092Z,21.10
2018-01-21T10:05:38.108Z,21.30
2018-01-21T10:06:38.118Z,20.20
2018-01-21T10:07:38.137Z,20.50
2018-01-21T10:08:38.154Z,20.60
2018-01-21T10:09:38.164Z,20.30
2018-01-21T10:10:38.188Z,19.50
2018-01-21T10:11:38.189Z,20.60
2018-01-21T10:12:38.203Z,19.60
2018-01-21T10:13:38.221Z,18.50
2018-01-21T10:14:38.229Z,20.40
2018-01-21T10:15:38.249Z,19.80
2018-01-21T10:16:38.276Z,20.30
2018-01-21T10:17:38.275Z,22.50
2018-01-21T10:18:38.290Z,24.80
2018-01-21T10:19:38.302Z,24.90
2018-01-21T10:20:38.314Z,25.10
2018-01-21T10:21:38.335Z,25.30
2018-01-21T10:22:38.346Z,24.40
2018-01-21T10:23:38.363Z,22.90
2018-01-21T10:24:38.377Z,23.20
2018-01-21T10:25:38.390Z,27.80
2018-01-21T10:26:38.406Z,22.20
2018-01-21T10:27:38.419Z,20.00
2018-01-21T10:28:38.440Z,21.40
2018-01-21T10:29:38.451Z,21.50
2018-01-21T10:30:38.457Z,22.20
2018-01-21T10:31:38.492Z,22.70
2018-01-21T10:32:38.497Z,22.10
2018-01-21T10:33:38.500Z,21.20
2018-01-21T10:34:38.514Z,20.90
2018-01-21T10:35:38.529Z,21.20
2018-01-21T10:36:38.547Z,20.30
2018-01-21T10:37:38.556Z,21.40
2018-01-21T10:38:38.574Z,20.50
2018-01-21T10:39:38.586Z,20.10
2018-01-21T10:40:38.599Z,21.00
2018-01-21T10:41:38.614Z,20.90
2018-01-21T10:42:38.628Z,20.50
2018-01-21T10:43:38.645Z,20.60
2018-01-21T10:44:38.656Z,20.20
2018-01-21T10:45:38.668Z,20.90
2018-01-21T10:46:38.684Z,20.70
2018-01-21T10:47:38.696Z,20.60
2018-01-21T10:48:38.711Z,21.00
2018-01-21T10:49:38.728Z,20.70
2018-01-21T10:50:38.742Z,20.90
2018-01-21T10:51:38.753Z,21.00
2018-01-21T10:52:38.771Z,20.30
2018-01-21T10:53:38.787Z,20.30
2018-01-21T10:54:38.794Z,21.40
2018-01-21T10:55:38.852Z,21.20
2018-01-21T10:56:38.826Z,24.10
2018-01-21T10:57:38.837Z,26.20
2018-01-21T10:58:38.853Z,25.10
2018-01-21T10:59:38.865Z,25.60
2018-01-21T11:00:38.879Z,28.70
2018-01-21T11:01:38.894Z,32.00
2018-01-21T11:02:38.906Z,29.10
2018-01-21T11:03:38.924Z,33.90
2018-01-21T11:04:38.934Z,34.60
2018-01-21T11:05:38.953Z,39.60
2018-01-21T11:06:38.961Z,44.60
2018-01-21T11:07:38.973Z,33.30
2018-01-21T11:08:38.991Z,32.30
2018-01-21T11:09:39.007Z,30.70
2018-01-21T11:10:39.014Z,31.20
2018-01-21T11:11:39.452Z,36.30
2018-01-21T11:12:39.103Z,32.70
2018-01-21T11:13:39.056Z,29.70
2018-01-21T11:14:39.071Z,26.40
2018-01-21T11:15:39.085Z,28.70
2018-01-21T11:16:39.099Z,25.50
2018-01-21T11:17:39.120Z,25.10
2018-01-21T11:18:39.135Z,25.20
2018-01-21T11:19:39.143Z,26.80
2018-01-21T11:20:39.165Z,28.80
2018-01-21T11:21:39.166Z,28.90
2018-01-21T11:22:39.186Z,32.70
2018-01-21T11:23:39.200Z,30.10
2018-01-21T11:24:39.214Z,29.80
2018-01-21T11:25:39.290Z,29.60
2018-01-21T11:26:39.242Z,29.50
2018-01-21T11:27:39.256Z,29.40
2018-01-21T11:28:39.304Z,27.60
2018-01-21T11:29:39.282Z,26.20
2018-01-21T11:30:39.299Z,23.90
2018-01-21T11:31:39.311Z,23.60
2018-01-21T11:32:39.325Z,21.20
2018-01-21T11:33:39.354Z,21.20
2018-01-21T11:34:39.350Z,21.00
2018-01-21T11:35:39.364Z,21.30
2018-01-21T11:36:39.382Z,21.40
2018-01-21T11:37:39.395Z,20.80
2018-01-21T11:38:39.409Z,21.40
2018-01-21T11:39:39.425Z,23.40
2018-01-21T11:40:39.436Z,23.00
2018-01-21T11:41:39.451Z,22.00
2018-01-21T11:42:39.467Z,22.40
2018-01-21T11:43:39.477Z,24.50
2018-01-21T11:44:39.493Z,27.20
2018-01-21T11:45:39.508Z,24.60
2018-01-21T11:46:39.519Z,26.80
2018-01-21T11:47:39.534Z,20.90
2018-01-21T11:48:39.548Z,20.60
2018-01-21T11:49:39.558Z,21.30
2018-01-21T11:50:39.573Z,20.40
2018-01-21T11:51:39.585Z,20.90
2018-01-21T11:52:39.601Z,21.20
2018-01-21T11:53:39.613Z,20.90
2018-01-21T11:54:39.627Z,20.90
2018-01-21T11:55:39.642Z,23.50
2018-01-21T11:56:39.658Z,22.00
2018-01-21T11:57:39.668Z,19.90
2018-01-21T11:58:39.682Z,22.00
2018-01-21T11:59:39.699Z,21.00
2018-01-21T12:00:39.713Z,21.40
2018-01-21T12:01:39.730Z,20.40
2018-01-21T12:02:39.738Z,20.30
2018-01-21T12:03:39.753Z,21.60
2018-01-21T12:04:39.777Z,20.60
2018-01-21T12:05:39.779Z,21.10
2018-01-21T12:06:39.791Z,21.60
2018-01-21T12:07:39.805Z,22.00
2018-01-21T12:08:39.826Z,22.30
2018-01-21T12:09:39.834Z,24.00
2018-01-21T12:10:39.849Z,22.80
2018-01-21T12:11:39.863Z,22.80
2018-01-21T12:12:39.878Z,23.40
2018-01-21T12:13:39.889Z,22.50
2018-01-21T12:14:39.904Z,22.60
2018-01-21T12:15:39.919Z,23.20
2018-01-21T12:16:39.931Z,22.30
2018-01-21T12:17:39.993Z,23.20
2018-01-21T12:18:40.110Z,23.30
2018-01-21T12:19:40.107Z,23.50
2018-01-21T12:20:40.013Z,24.10
2018-01-21T12:21:40.071Z,21.50
2018-01-21T12:22:40.023Z,23.80
2018-01-21T12:23:40.079Z,24.20
2018-01-21T12:24:40.048Z,26.30
2018-01-21T12:25:40.070Z,28.80
2018-01-21T12:26:40.122Z,26.70
2018-01-21T12:27:40.090Z,24.10
2018-01-21T12:28:40.120Z,23.30
2018-01-21T12:29:40.109Z,22.70
2018-01-21T12:30:40.143Z,22.60
2018-01-21T12:31:40.159Z,21.90
2018-01-21T12:32:40.188Z,28.70
2018-01-21T12:33:40.164Z,35.40
2018-01-21T12:34:40.178Z,37.40
2018-01-21T12:35:40.193Z,31.70
2018-01-21T12:36:40.203Z,28.20
2018-01-21T12:37:40.219Z,23.40
2018-01-21T12:38:40.232Z,24.90
2018-01-21T12:39:40.252Z,24.60
2018-01-21T12:40:40.258Z,26.20
2018-01-21T12:41:40.273Z,28.90
2018-01-21T12:42:40.287Z,27.40
2018-01-21T12:43:40.297Z,24.50
2018-01-21T12:44:40.311Z,22.40
2018-01-21T12:45:40.325Z,21.30
2018-01-21T12:46:40.353Z,22.70
2018-01-21T12:47:40.354Z,24.90
2018-01-21T12:48:40.375Z,24.50
2018-01-21T12:49:40.388Z,24.20
2018-01-21T12:50:40.397Z,22.90
2018-01-21T12:51:40.414Z,24.00
2018-01-21T12:52:40.429Z,26.10
2018-01-21T12:53:40.436Z,31.60
2018-01-21T12:54:40.450Z,29.50
2018-01-21T12:55:40.464Z,25.10
2018-01-21T12:56:40.479Z,23.00
2018-01-21T12:57:40.490Z,24.10
2018-01-21T12:58:40.505Z,26.30
2018-01-21T12:59:40.517Z,30.10
2018-01-21T13:00:40.542Z,29.70
2018-01-21T13:01:40.543Z,30.90
2018-01-21T13:02:40.560Z,31.20
2018-01-21T13:03:40.584Z,35.40
2018-01-21T13:04:40.585Z,30.20
2018-01-21T13:05:40.601Z,22.60
2018-01-21T13:06:40.612Z,19.80